createdAt,value
2022-11-26T03:29:24.380Z,20.98
2022-11-26T03:31:52.707Z,20.25
2022-11-26T03:34:20.665Z,22.02
2022-11-26T03:36:48.553Z,20.55
2022-11-26T03:39:18.778Z,20.35
2022-11-26T03:41:46.697Z,18.52
2022-11-26T03:44:14.953Z,21.60
2022-11-26T03:46:46.254Z,22.45
2022-11-26T03:49:14.200Z,21.05
2022-11-26T03:51:43.280Z,18.23
2022-11-26T03:54:11.553Z,20.65
2022-11-26T03:56:39.567Z,19.55
2022-11-26T03:59:09.869Z,19.48
2022-11-26T04:01:39.781Z,19.42
2022-11-26T04:04:07.627Z,20.25
2022-11-26T04:06:37.237Z,18.75
2022-11-26T04:09:05.655Z,19.88
2022-11-26T04:11:33.559Z,19.73
2022-11-26T04:14:01.691Z,19.60
2022-11-26T04:16:29.766Z,19.77
2022-11-26T04:18:58.028Z,20.85
2022-11-26T04:21:27.043Z,20.75
2022-11-26T04:23:55.516Z,20.70
2022-11-26T04:26:23.371Z,20.90
2022-11-26T04:28:51.683Z,21.08
2022-11-26T04:31:19.587Z,20.23
2022-11-26T04:33:47.451Z,18.48
2022-11-26T04:36:15.456Z,20.05
2022-11-26T04:38:43.401Z,20.38
2022-11-26T04:41:11.218Z,21.10
2022-11-26T04:43:39.119Z,21.20
2022-11-26T04:46:08.955Z,19.42
2022-11-26T04:48:37.053Z,18.33
2022-11-26T04:51:05.744Z,14.57
2022-11-26T04:53:34.179Z,17.42
2022-11-26T04:56:01.987Z,18.00
2022-11-26T04:58:30.561Z,17.33
2022-11-26T05:00:58.974Z,15.80
2022-11-26T05:03:26.715Z,17.80
2022-11-26T05:05:55.997Z,15.88
2022-11-26T05:08:24.942Z,17.02
2022-11-26T05:10:54.580Z,15.98
2022-11-26T05:13:22.990Z,16.63
2022-11-26T05:15:52.773Z,16.50
2022-11-26T05:18:20.817Z,17.60
2022-11-26T05:20:48.981Z,17.38
2022-11-26T05:23:17.177Z,18.48
2022-11-26T05:25:45.434Z,16.10
2022-11-26T05:28:14.099Z,15.23
2022-11-26T05:30:41.888Z,15.82
2022-11-26T05:33:09.750Z,15.15
2022-11-26T05:35:38.236Z,14.02
2022-11-26T05:38:06.093Z,15.15
2022-11-26T05:40:34.436Z,16.15
2022-11-26T05:43:02.400Z,16.20
2022-11-26T05:45:30.928Z,16.45
2022-11-26T05:48:00.019Z,17.88
2022-11-26T05:50:28.256Z,15.88
2022-11-26T05:52:56.126Z,16.70
2022-11-26T05:55:24.387Z,16.67
2022-11-26T05:57:52.404Z,15.48
2022-11-26T06:00:20.341Z,16.60
2022-11-26T06:02:48.501Z,17.40
2022-11-26T06:05:16.543Z,15.95
2022-11-26T06:07:46.764Z,16.75
2022-11-26T06:10:15.166Z,16.65
2022-11-26T06:12:44.053Z,14.63
2022-11-26T06:15:12.168Z,15.60
2022-11-26T06:17:43.038Z,14.48
2022-11-26T06:20:13.394Z,14.95
2022-11-26T06:22:43.034Z,15.98
2022-11-26T06:25:13.625Z,15.95
2022-11-26T06:27:44.052Z,16.33
2022-11-26T06:30:12.633Z,14.88
2022-11-26T06:32:40.870Z,15.18
2022-11-26T06:35:09.079Z,13.32
2022-11-26T06:37:38.613Z,14.27
2022-11-26T06:40:07.490Z,14.25
2022-11-26T06:42:35.548Z,14.70
2022-11-26T06:45:04.024Z,14.60
2022-11-26T06:47:32.510Z,14.55
2022-11-26T06:50:00.307Z,15.27
2022-11-26T06:52:28.158Z,14.38
2022-11-26T06:54:56.112Z,14.13
2022-11-26T06:57:25.381Z,14.00
2022-11-26T06:59:53.333Z,14.50
2022-11-26T07:02:21.479Z,14.32
2022-11-26T07:04:49.380Z,12.82
2022-11-26T07:07:19.343Z,14.30
2022-11-26T07:09:48.682Z,14.40
2022-11-26T07:12:16.623Z,12.93
2022-11-26T07:14:45.274Z,14.68
2022-11-26T07:17:14.309Z,14.38
2022-11-26T07:19:42.127Z,14.07
2022-11-26T07:22:10.155Z,13.10
2022-11-26T07:24:39.489Z,13.25
2022-11-26T07:27:08.886Z,12.70
2022-11-26T12:00:55.661Z,23.67
2022-11-26T12:03:45.814Z,24.58
2022-11-26T12:07:00.991Z,25.70
2022-11-26T12:09:32.063Z,23.60
2022-11-26T12:12:13.440Z,25.25
2022-11-26T12:14:43.331Z,26.50
2022-11-26T12:17:22.951Z,27.02
2022-11-26T12:19:54.397Z,25.50
2022-11-26T12:22:25.498Z,25.52
2022-11-26T12:25:19.319Z,16.90
2022-11-26T12:27:50.456Z,16.95
2022-11-26T12:30:23.354Z,16.10
2022-11-26T12:32:53.586Z,15.65
2022-11-26T12:35:35.126Z,14.35
2022-11-26T12:38:06.581Z,16.92
2022-11-26T12:40:43.076Z,16.20
2022-11-26T12:43:16.802Z,16.45
2022-11-26T12:45:59.384Z,18.85
2022-11-26T12:48:43.103Z,19.17
2022-11-26T12:51:36.411Z,19.42
2022-11-26T12:54:25.275Z,18.48
2022-11-26T12:57:07.625Z,19.73
2022-11-26T12:59:46.485Z,16.08
2022-11-26T13:02:31.389Z,14.90
2022-11-26T13:04:59.907Z,16.00
2022-11-26T13:07:53.087Z,14.85
2022-11-26T13:10:49.814Z,13.80
2022-11-26T13:13:39.608Z,15.05
2022-11-26T13:16:28.888Z,16.02
2022-11-26T13:19:06.583Z,13.52
2022-11-26T13:21:53.695Z,12.13
2022-11-26T13:24:49.232Z,13.75
2022-11-26T13:27:20.422Z,13.35
2022-11-26T13:30:10.785Z,13.13
2022-11-26T13:33:02.362Z,11.75
2022-11-26T13:35:58.373Z,10.82
2022-11-26T13:38:47.838Z,10.35
2022-11-26T13:41:27.696Z,10.85
2022-11-26T13:44:30.712Z,10.52
2022-11-26T13:47:25.314Z,10.80
2022-11-26T13:50:04.223Z,10.57
2022-11-26T13:52:45.317Z,11.25
2022-11-26T13:55:20.974Z,10.65
2022-11-26T13:57:51.784Z,10.43
2022-11-26T14:00:32.896Z,9.88
2022-11-26T14:03:01.489Z,8.98
2022-11-26T14:05:55.249Z,10.43
2022-11-26T14:08:41.811Z,10.32
2022-11-26T14:13:37.996Z,9.90
2022-11-26T14:16:12.116Z,10.15
2022-11-26T14:18:49.179Z,9.73
2022-11-26T14:21:19.888Z,11.13
2022-11-26T14:23:51.315Z,12.52
2022-11-26T14:26:28.361Z,10.43
2022-11-26T14:29:17.588Z,10.63
2022-11-26T14:31:53.499Z,11.05
2022-11-26T14:34:46.416Z,10.75
2022-11-26T14:37:16.567Z,11.00
2022-11-26T14:39:44.371Z,11.40
2022-11-26T14:42:16.467Z,11.82
2022-11-26T14:44:47.485Z,10.13
2022-11-26T14:47:20.919Z,10.98
2022-11-26T14:50:00.318Z,11.13
2022-11-26T14:52:30.780Z,10.85
2022-11-26T14:55:00.079Z,11.18
2022-11-26T14:57:48.511Z,12.45
2022-11-26T15:00:36.894Z,11.73
2022-11-26T15:03:18.430Z,12.57
2022-11-26T15:05:46.519Z,12.88
2022-11-26T15:08:19.511Z,13.40
2022-11-26T15:10:54.870Z,13.52
2022-11-26T15:13:33.543Z,13.85
2022-11-26T15:16:02.425Z,15.38
2022-11-26T15:18:44.083Z,14.38
2022-11-26T15:21:27.344Z,13.35
2022-11-26T15:24:07.851Z,12.98
2022-11-26T15:26:37.180Z,13.88
2022-11-26T15:29:29.603Z,15.02
2022-11-26T15:31:57.413Z,11.25
2022-11-26T15:34:25.713Z,11.95
2022-11-26T15:37:37.150Z,11.73
2022-11-26T15:40:31.869Z,11.38
2022-11-26T15:43:05.990Z,10.63
2022-11-26T15:45:39.911Z,11.23
2022-11-26T15:48:50.363Z,12.82
2022-11-26T15:51:22.420Z,12.95
2022-11-26T15:53:52.166Z,14.10
2022-11-26T15:56:27.620Z,14.65
2022-11-26T15:59:00.660Z,16.17
2022-11-26T16:01:33.082Z,15.55
2022-11-26T16:04:06.600Z,16.98
2022-11-26T16:07:01.826Z,14.93
2022-11-26T16:09:32.570Z,14.38
2022-11-26T16:12:03.569Z,12.65
2022-11-26T16:14:37.316Z,12.45
2022-11-26T16:17:13.717Z,14.13
2022-11-26T16:19:52.160Z,13.95
2022-11-26T16:22:25.508Z,14.85
2022-11-26T16:25:02.607Z,13.93
2022-11-26T16:27:31.793Z,12.20
2022-11-26T16:30:02.658Z,11.02
2022-11-26T16:32:31.874Z,11.45
2022-11-26T16:35:17.366Z,11.13
2022-11-26T16:37:49.143Z,11.27
2022-11-26T18:18:37.116Z,12.60
2022-11-26T18:21:15.666Z,12.10
2022-11-26T18:23:48.221Z,11.07
2022-11-26T18:26:20.524Z,11.38
2022-11-26T18:28:48.500Z,9.73
2022-11-26T18:31:17.212Z,10.43
2022-11-26T18:33:50.443Z,11.80
2022-11-26T18:36:27.060Z,11.07
2022-11-26T18:39:17.167Z,11.13
2022-11-26T18:42:36.140Z,12.27
2022-11-26T18:45:03.159Z,12.45
2022-11-26T18:47:31.699Z,11.63
2022-11-26T18:50:02.134Z,12.23
2022-11-26T18:52:31.690Z,13.38
2022-11-26T18:55:00.463Z,13.52
2022-11-26T18:57:34.716Z,15.15
2022-11-26T19:00:03.726Z,16.17
2022-11-26T19:02:35.326Z,14.77
2022-11-26T19:05:06.150Z,15.10
2022-11-26T19:07:43.344Z,14.70
2022-11-26T19:10:12.180Z,15.70
2022-11-26T22:04:48.622Z,13.88
2022-11-26T22:07:17.697Z,12.98
2022-11-26T22:09:45.644Z,11.70
2022-11-26T22:12:13.777Z,10.95
2022-11-26T22:14:41.856Z,11.13
2022-11-26T22:17:11.946Z,13.80
2022-11-26T22:19:39.974Z,11.82
2022-11-26T22:22:08.126Z,11.82
2022-11-26T22:24:35.953Z,12.05
2022-11-26T22:27:03.934Z,10.13
2022-11-26T22:29:31.847Z,8.73
2022-11-26T22:31:59.716Z,7.35
2022-11-26T22:34:29.209Z,6.45
2022-11-26T22:36:57.701Z,6.72
2022-11-26T22:39:25.575Z,5.88
2022-11-26T22:41:53.381Z,7.57
2022-11-26T22:44:21.330Z,6.80
2022-11-26T22:46:49.348Z,6.63
2022-11-26T22:49:18.981Z,6.22
2022-11-26T22:51:47.581Z,6.20
2022-11-26T22:54:16.608Z,5.40
2022-11-26T22:56:45.020Z,5.43
2022-11-26T22:59:13.600Z,5.95
2022-11-26T23:01:41.948Z,6.32
2022-11-26T23:04:10.353Z,6.10
2022-11-26T23:06:38.794Z,6.32
2022-11-26T23:09:07.723Z,7.00
2022-11-26T23:11:38.549Z,6.75
2022-11-26T23:14:09.571Z,7.07
2022-11-26T23:16:40.942Z,7.57
2022-11-26T23:19:10.005Z,8.18
2022-11-26T23:21:40.060Z,9.23
2022-11-26T23:24:08.348Z,8.75
2022-11-26T23:26:36.902Z,9.05
2022-11-26T23:29:05.389Z,8.13
2022-11-26T23:31:41.268Z,9.20
2022-11-26T23:34:09.753Z,8.85
2022-11-26T23:36:37.954Z,9.23
2022-11-26T23:39:07.167Z,9.43
2022-11-26T23:41:36.540Z,8.85
2022-11-26T23:44:04.660Z,8.10
2022-11-26T23:46:33.221Z,8.02
2022-11-26T23:49:01.136Z,7.75
2022-11-26T23:51:30.950Z,7.35
2022-11-26T23:53:59.396Z,7.18
2022-11-26T23:56:32.268Z,6.97
2022-11-26T23:59:02.842Z,6.72
